createdAt,value
2016-12-01T00:00:38.317Z,979.5
2016-12-01T00:01:38.274Z,979.57
2016-12-01T00:02:38.230Z,979.49
2016-12-01T00:03:38.185Z,979.54
2016-12-01T00:04:38.188Z,979.58
2016-12-01T00:05:38.100Z,979.54
2016-12-01T00:06:38.057Z,979.49
2016-12-01T00:07:38.014Z,979.43
2016-12-01T00:08:37.971Z,979.43
2016-12-01T00:09:37.928Z,979.41
2016-12-01T00:10:37.884Z,979.43
2016-12-01T00:11:37.842Z,979.42
2016-12-01T00:12:37.799Z,979.43
2016-12-01T00:13:37.756Z,979.42
2016-12-01T00:14:37.714Z,979.48
2016-12-01T00:15:37.669Z,979.49
2016-12-01T00:16:37.625Z,979.48
2016-12-01T00:17:37.583Z,979.49
2016-12-01T00:18:37.540Z,979.51
2016-12-01T00:19:37.496Z,979.47
2016-12-01T00:20:37.452Z,979.46
2016-12-01T00:21:37.409Z,979.43
2016-12-01T00:22:37.368Z,979.46
2016-12-01T00:23:37.324Z,979.42
2016-12-01T00:24:37.283Z,979.44
2016-12-01T00:25:37.237Z,979.44
2016-12-01T00:26:37.194Z,979.4
2016-12-01T00:27:37.151Z,979.36
2016-12-01T00:28:37.107Z,979.39
2016-12-01T00:29:37.064Z,979.35
2016-12-01T00:30:37.021Z,979.41
2016-12-01T00:31:36.978Z,979.39
2016-12-01T00:32:36.934Z,979.45
2016-12-01T00:33:36.891Z,979.47
2016-12-01T00:34:36.848Z,979.42
2016-12-01T00:35:36.805Z,979.44
2016-12-01T00:36:36.763Z,979.46
2016-12-01T00:37:36.721Z,979.46
2016-12-01T00:38:36.677Z,979.49
2016-12-01T00:39:36.634Z,979.49
2016-12-01T00:40:36.589Z,979.5
2016-12-01T00:41:36.548Z,979.53
2016-12-01T00:42:36.503Z,979.6
2016-12-01T00:43:36.460Z,979.61
2016-12-01T00:44:36.417Z,979.64
2016-12-01T00:45:36.374Z,979.62
2016-12-01T00:46:36.331Z,979.61
2016-12-01T00:47:36.289Z,979.64
2016-12-01T00:48:36.243Z,979.64
2016-12-01T00:49:36.200Z,979.63
2016-12-01T00:50:36.154Z,979.72
2016-12-01T00:51:36.113Z,979.71
2016-12-01T00:52:36.069Z,979.73
2016-12-01T00:53:36.027Z,979.71
2016-12-01T00:54:35.982Z,979.68
2016-12-01T00:55:35.944Z,979.69
2016-12-01T00:56:35.901Z,979.69
2016-12-01T00:57:35.853Z,979.71
2016-12-01T00:58:35.810Z,979.69
2016-12-01T00:59:35.766Z,979.65
2016-12-01T01:00:35.723Z,979.72
2016-12-01T01:01:35.679Z,979.65
2016-12-01T01:02:35.637Z,979.64
2016-12-01T01:03:35.594Z,979.61
2016-12-01T01:04:35.550Z,979.65
2016-12-01T01:05:35.506Z,979.64
2016-12-01T01:06:35.463Z,979.67
2016-12-01T01:07:35.420Z,979.68
2016-12-01T01:08:35.377Z,979.72
2016-12-01T01:09:35.333Z,979.73
2016-12-01T01:10:35.289Z,979.7
2016-12-01T01:11:35.246Z,979.74
2016-12-01T01:12:35.202Z,979.77
2016-12-01T01:13:35.159Z,979.75
2016-12-01T01:14:35.116Z,979.77
2016-12-01T01:15:35.073Z,979.74
2016-12-01T01:16:35.029Z,979.78
2016-12-01T01:17:34.989Z,979.79
2016-12-01T01:18:34.943Z,979.76
2016-12-01T01:19:34.899Z,979.72
2016-12-01T01:20:34.858Z,979.78
2016-12-01T01:21:34.815Z,979.78
2016-12-01T01:22:34.769Z,979.69
2016-12-01T01:23:34.725Z,979.69
2016-12-01T01:24:34.683Z,979.7
2016-12-01T01:25:34.638Z,979.69
2016-12-01T01:26:34.599Z,979.7
2016-12-01T01:27:34.552Z,979.66
2016-12-01T01:28:34.509Z,979.64
2016-12-01T01:29:34.468Z,979.6
2016-12-01T01:30:34.423Z,979.64
2016-12-01T01:31:34.381Z,979.72
2016-12-01T01:32:34.336Z,979.76
2016-12-01T01:33:34.293Z,979.74
2016-12-01T01:34:34.252Z,979.81
2016-12-01T01:35:34.207Z,979.82
2016-12-01T01:36:34.164Z,979.82
2016-12-01T01:37:34.121Z,979.83
2016-12-01T01:38:34.080Z,979.84
2016-12-01T01:39:34.034Z,979.85
2016-12-01T01:40:33.992Z,979.83
2016-12-01T01:41:33.949Z,979.76
2016-12-01T01:42:33.904Z,979.77
2016-12-01T01:43:33.861Z,979.82
2016-12-01T01:44:33.821Z,979.77
2016-12-01T01:45:33.775Z,979.83
2016-12-01T01:46:33.731Z,979.82
2016-12-01T01:47:33.689Z,979.83
2016-12-01T01:48:33.644Z,979.84
2016-12-01T01:49:33.600Z,979.79
2016-12-01T01:50:33.559Z,979.75
2016-12-01T01:51:33.517Z,979.74
2016-12-01T01:52:33.472Z,979.66
2016-12-01T01:53:33.430Z,979.71
2016-12-01T01:54:33.386Z,979.73
2016-12-01T01:55:33.342Z,979.73
2016-12-01T01:56:33.298Z,979.79
2016-12-01T01:57:33.255Z,979.8
2016-12-01T01:58:33.212Z,979.84
2016-12-01T01:59:33.168Z,979.81
2016-12-01T02:00:33.125Z,979.86
2016-12-01T02:01:33.082Z,979.87
2016-12-01T02:02:33.040Z,979.87
2016-12-01T02:03:32.995Z,979.85
2016-12-01T02:04:32.952Z,979.85
2016-12-01T02:05:32.909Z,979.83
2016-12-01T02:06:32.866Z,979.81
2016-12-01T02:07:32.822Z,979.81
2016-12-01T02:08:32.779Z,979.81
2016-12-01T02:09:32.738Z,979.82
2016-12-01T02:10:32.693Z,979.82
2016-12-01T02:11:32.648Z,979.89
2016-12-01T02:12:32.606Z,979.81
2016-12-01T02:13:32.562Z,979.84
2016-12-01T02:14:32.519Z,979.8
2016-12-01T02:15:32.476Z,979.77
2016-12-01T02:16:32.433Z,979.8
2016-12-01T02:17:32.391Z,979.78
2016-12-01T02:18:32.345Z,979.74
2016-12-01T02:19:32.303Z,979.75
2016-12-01T02:20:32.260Z,979.77
2016-12-01T02:21:32.215Z,979.79
2016-12-01T02:22:32.213Z,979.77
2016-12-01T02:23:32.129Z,979.77
2016-12-01T02:24:32.086Z,979.73
2016-12-01T02:25:32.042Z,979.71
2016-12-01T02:26:32.000Z,979.66
2016-12-01T02:27:31.957Z,979.67
2016-12-01T02:28:31.914Z,979.59
2016-12-01T02:29:31.870Z,979.58
2016-12-01T02:30:31.825Z,979.63
2016-12-01T02:31:31.781Z,979.61
2016-12-01T02:32:31.738Z,979.63
2016-12-01T02:33:31.697Z,979.69
2016-12-01T02:34:31.652Z,979.65
2016-12-01T02:35:31.618Z,979.68
2016-12-01T02:36:31.565Z,979.7
2016-12-01T02:37:31.522Z,979.72
2016-12-01T02:38:31.478Z,979.69
2016-12-01T02:39:31.437Z,979.67
2016-12-01T02:40:31.392Z,979.67
2016-12-01T02:41:31.350Z,979.69
2016-12-01T02:42:31.327Z,979.67
2016-12-01T02:43:31.262Z,979.67
2016-12-01T02:44:31.218Z,979.67
2016-12-01T02:45:31.176Z,979.65
2016-12-01T02:46:31.134Z,979.68
2016-12-01T02:47:31.089Z,979.68
2016-12-01T02:48:31.046Z,979.65
2016-12-01T02:49:31.003Z,979.58
2016-12-01T02:50:30.960Z,979.63
2016-12-01T02:51:30.918Z,979.55
2016-12-01T02:52:30.873Z,979.55
2016-12-01T02:53:30.829Z,979.54
2016-12-01T02:54:30.785Z,979.54
2016-12-01T02:55:30.742Z,979.53
2016-12-01T02:56:30.701Z,979.53
2016-12-01T02:57:30.657Z,979.49
2016-12-01T02:58:30.612Z,979.46
2016-12-01T02:59:30.570Z,979.45
2016-12-01T03:00:30.526Z,979.38
2016-12-01T03:01:30.483Z,979.35
2016-12-01T03:02:30.438Z,979.33
2016-12-01T03:03:30.396Z,979.33
2016-12-01T03:04:30.353Z,979.27
2016-12-01T03:05:30.309Z,979.34
2016-12-01T03:06:30.266Z,979.3
2016-12-01T03:07:30.222Z,979.28
2016-12-01T03:08:30.179Z,979.29
2016-12-01T03:09:30.134Z,979.26
2016-12-01T03:10:30.091Z,979.31
2016-12-01T03:11:30.049Z,979.27
2016-12-01T03:12:30.006Z,979.26
2016-12-01T03:13:29.962Z,979.25
2016-12-01T03:14:29.919Z,979.3
2016-12-01T03:15:29.876Z,979.3
2016-12-01T03:16:29.831Z,979.25
2016-12-01T03:17:29.789Z,979.25
2016-12-01T03:18:29.745Z,979.17
2016-12-01T03:19:29.704Z,979.21
2016-12-01T03:20:29.664Z,979.19
2016-12-01T03:21:29.615Z,979.17
2016-12-01T03:22:29.572Z,979.19
2016-12-01T03:23:29.528Z,979.17
2016-12-01T03:24:29.484Z,979.14
2016-12-01T03:25:29.442Z,979.14
2016-12-01T03:26:29.397Z,979.13
2016-12-01T03:27:29.357Z,979.12
2016-12-01T03:28:29.311Z,979.15
2016-12-01T03:29:29.268Z,979.11
2016-12-01T03:30:29.222Z,979.12
2016-12-01T03:31:29.180Z,979.18
2016-12-01T03:32:29.138Z,979.15
2016-12-01T03:33:29.095Z,979.18
2016-12-01T03:34:29.053Z,979.19
2016-12-01T03:35:29.009Z,979.1
2016-12-01T03:36:28.964Z,979.22
2016-12-01T03:37:28.919Z,979.15
2016-12-01T03:38:28.876Z,979.14
2016-12-01T03:39:28.832Z,979.12
2016-12-01T03:40:28.789Z,979.13
2016-12-01T03:41:28.747Z,979.1
2016-12-01T03:42:28.703Z,979.14
2016-12-01T03:43:28.657Z,979.14
2016-12-01T03:44:28.617Z,979.14
2016-12-01T03:45:28.573Z,979.16
2016-12-01T03:46:28.529Z,979.14
2016-12-01T03:47:28.487Z,979.18
2016-12-01T03:48:28.442Z,979.15
2016-12-01T03:49:28.398Z,979.14
2016-12-01T03:50:28.354Z,979.1
2016-12-01T03:51:28.312Z,979.11
2016-12-01T03:52:28.269Z,979.08
2016-12-01T03:53:28.225Z,979.08
2016-12-01T03:54:28.181Z,979.11
2016-12-01T03:55:28.138Z,979.12
2016-12-01T03:56:28.093Z,979.1
2016-12-01T03:57:28.050Z,979.06
2016-12-01T03:58:28.007Z,979.03
2016-12-01T03:59:27.964Z,979.1
2016-12-01T04:00:27.919Z,979.05
2016-12-01T04:01:27.878Z,979.08
2016-12-01T04:02:27.834Z,979.1
2016-12-01T04:03:27.790Z,979.04
2016-12-01T04:04:27.746Z,979.08
2016-12-01T04:05:27.701Z,979.12
2016-12-01T04:06:27.658Z,979.11
2016-12-01T04:07:27.615Z,979.12
2016-12-01T04:08:27.572Z,979.08
2016-12-01T04:09:27.529Z,979.04
2016-12-01T04:10:27.483Z,979.05
2016-12-01T04:11:27.440Z,979.01
2016-12-01T04:12:27.397Z,979.03
2016-12-01T04:13:27.354Z,979.06
2016-12-01T04:14:27.309Z,979.03
2016-12-01T04:15:27.266Z,979.07
2016-12-01T04:16:27.221Z,979.01
2016-12-01T04:17:27.179Z,978.99
2016-12-01T04:18:27.134Z,979.03
2016-12-01T04:19:27.090Z,979.01
2016-12-01T04:20:27.049Z,979.04
2016-12-01T04:21:27.007Z,979.05
2016-12-01T04:22:26.958Z,979.02
2016-12-01T04:23:26.917Z,979.04
2016-12-01T04:24:26.873Z,979.06
2016-12-01T04:25:26.830Z,979.09
2016-12-01T04:26:26.786Z,979.11
2016-12-01T04:27:26.742Z,979.16
2016-12-01T04:28:26.699Z,979.18
2016-12-01T04:29:26.653Z,979.16
2016-12-01T04:30:26.610Z,979.15
2016-12-01T04:31:26.569Z,979.13
2016-12-01T04:32:26.524Z,979.13
2016-12-01T04:33:26.479Z,979.08
2016-12-01T04:34:26.436Z,979.06
2016-12-01T04:35:26.393Z,979.03
2016-12-01T04:36:26.349Z,979.08
2016-12-01T04:37:26.306Z,979.01
2016-12-01T04:38:26.261Z,979.03
2016-12-01T04:39:26.220Z,979.07
2016-12-01T04:40:26.174Z,979.01
2016-12-01T04:41:26.134Z,979.02
2016-12-01T04:42:26.089Z,979.09
2016-12-01T04:43:26.044Z,979.1
2016-12-01T04:44:26.001Z,979.12
2016-12-01T04:45:25.958Z,979.09
2016-12-01T04:46:25.912Z,979.09
2016-12-01T04:47:25.872Z,979.05
2016-12-01T04:48:25.825Z,979.01
2016-12-01T04:49:25.782Z,978.99
2016-12-01T04:50:25.738Z,978.97
2016-12-01T04:51:25.694Z,979.01
2016-12-01T04:52:25.650Z,978.97
2016-12-01T04:53:25.609Z,978.99
2016-12-01T04:54:25.564Z,978.97
2016-12-01T04:55:25.520Z,978.94
2016-12-01T04:56:25.477Z,978.92
2016-12-01T04:57:25.437Z,978.89
2016-12-01T04:58:25.390Z,978.88
2016-12-01T04:59:25.347Z,978.88
2016-12-01T05:00:25.303Z,978.93
2016-12-01T05:01:25.264Z,978.89
2016-12-01T05:02:25.215Z,978.87
2016-12-01T05:03:25.171Z,978.88
2016-12-01T05:04:25.128Z,978.9
2016-12-01T05:05:25.085Z,978.87
2016-12-01T05:06:25.041Z,978.87
2016-12-01T05:07:24.998Z,978.9
2016-12-01T05:08:24.953Z,978.91
2016-12-01T05:09:24.910Z,978.9
2016-12-01T05:10:24.865Z,978.87
2016-12-01T05:11:24.826Z,978.87
2016-12-01T05:12:24.781Z,978.88
2016-12-01T05:13:24.735Z,978.88
2016-12-01T05:14:24.694Z,978.91
2016-12-01T05:15:24.649Z,978.85
2016-12-01T05:16:24.606Z,978.87
2016-12-01T05:17:24.561Z,978.8
2016-12-01T05:18:24.527Z,978.81
2016-12-01T05:19:24.475Z,978.81
2016-12-01T05:20:24.432Z,978.78
2016-12-01T05:21:24.389Z,978.77
2016-12-01T05:22:24.345Z,978.79
2016-12-01T05:23:24.302Z,978.81
2016-12-01T05:24:24.258Z,978.83
2016-12-01T05:25:24.213Z,978.81
2016-12-01T05:26:24.171Z,978.79
2016-12-01T05:27:24.129Z,978.8
2016-12-01T05:28:24.086Z,978.8
2016-12-01T05:29:24.041Z,978.76
2016-12-01T05:30:23.998Z,978.78
2016-12-01T05:31:23.954Z,978.78
2016-12-01T05:32:23.911Z,978.78
2016-12-01T05:33:23.868Z,978.73
2016-12-01T05:34:23.824Z,978.72
2016-12-01T05:35:23.780Z,978.69
2016-12-01T05:36:23.736Z,978.66
2016-12-01T05:37:23.693Z,978.7
2016-12-01T05:38:23.650Z,978.68
2016-12-01T05:39:23.606Z,978.7
2016-12-01T05:40:23.562Z,978.65
2016-12-01T05:41:23.520Z,978.58
2016-12-01T05:42:23.475Z,978.61
2016-12-01T05:43:23.434Z,978.52
2016-12-01T05:44:23.389Z,978.48
2016-12-01T05:45:23.347Z,978.52
2016-12-01T05:46:23.301Z,978.5
2016-12-01T05:47:23.260Z,978.46
2016-12-01T05:48:23.217Z,978.41
2016-12-01T05:49:23.173Z,978.42
2016-12-01T05:50:23.127Z,978.44
2016-12-01T05:51:23.087Z,978.44
2016-12-01T05:52:23.043Z,978.45
2016-12-01T05:53:22.998Z,978.47
2016-12-01T05:54:22.956Z,978.41
2016-12-01T05:55:22.914Z,978.43
2016-12-01T05:56:22.869Z,978.41
2016-12-01T05:57:22.827Z,978.49
2016-12-01T05:58:22.782Z,978.46
2016-12-01T05:59:22.739Z,978.48
2016-12-01T06:00:22.696Z,978.47
2016-12-01T06:01:22.653Z,978.45
2016-12-01T06:02:22.609Z,978.5
2016-12-01T06:03:22.568Z,978.47
2016-12-01T06:04:22.522Z,978.48
2016-12-01T06:05:22.480Z,978.48
2016-12-01T06:06:22.437Z,978.53
2016-12-01T06:07:22.396Z,978.49
2016-12-01T06:08:22.349Z,978.53
2016-12-01T06:09:22.307Z,978.48
2016-12-01T06:10:22.265Z,978.42
2016-12-01T06:11:22.221Z,978.41
2016-12-01T06:12:22.179Z,978.37
2016-12-01T06:13:22.141Z,978.37
2016-12-01T06:14:22.091Z,978.32
2016-12-01T06:15:22.046Z,978.29
2016-12-01T06:16:22.004Z,978.27
2016-12-01T06:17:21.960Z,978.22
2016-12-01T06:18:21.918Z,978.19
2016-12-01T06:19:21.874Z,978.2
2016-12-01T06:20:21.834Z,978.17
2016-12-01T06:21:21.791Z,978.17
2016-12-01T06:22:21.744Z,978.17
2016-12-01T06:23:21.702Z,978.15
2016-12-01T06:24:21.658Z,978.12
2016-12-01T06:25:21.615Z,978.15
2016-12-01T06:26:21.572Z,978.13
2016-12-01T06:27:21.528Z,978.15
2016-12-01T06:28:21.485Z,978.1
2016-12-01T06:29:21.443Z,978.08
2016-12-01T06:30:21.397Z,978.09
2016-12-01T06:31:21.358Z,978.1
2016-12-01T06:32:21.314Z,978.11
2016-12-01T06:33:21.269Z,978.15
2016-12-01T06:34:21.227Z,978.13
2016-12-01T06:35:21.183Z,978.16
2016-12-01T06:36:21.139Z,978.05
2016-12-01T06:37:21.094Z,978.06
2016-12-01T06:38:21.051Z,978.08
2016-12-01T06:39:21.008Z,978.04
2016-12-01T06:40:20.966Z,978.05
2016-12-01T06:41:20.923Z,978.05
2016-12-01T06:42:20.878Z,978.04
2016-12-01T06:43:20.835Z,978.1
2016-12-01T06:44:20.791Z,978.06
2016-12-01T06:45:20.749Z,978.07
2016-12-01T06:46:20.705Z,978.09
2016-12-01T06:47:20.662Z,978.09
2016-12-01T06:48:20.618Z,978.15
2016-12-01T06:49:20.576Z,978.15
2016-12-01T06:50:20.533Z,978.15
2016-12-01T06:51:20.488Z,978.15
2016-12-01T06:52:20.444Z,978.17
2016-12-01T06:53:20.402Z,978.16
2016-12-01T06:54:20.360Z,978.19
2016-12-01T06:55:20.317Z,978.21
2016-12-01T06:56:20.275Z,978.17
2016-12-01T06:57:20.230Z,978.19
2016-12-01T06:58:20.187Z,978.17
2016-12-01T06:59:20.143Z,978.16
2016-12-01T07:00:20.101Z,978.18
2016-12-01T07:01:20.057Z,978.16
2016-12-01T07:02:20.014Z,978.17
2016-12-01T07:03:19.974Z,978.14
2016-12-01T07:04:19.927Z,978.12
2016-12-01T07:05:19.885Z,978.13
2016-12-01T07:06:19.841Z,978.09
2016-12-01T07:07:19.798Z,978.05
2016-12-01T07:08:19.757Z,978.08
2016-12-01T07:09:19.712Z,978.11
2016-12-01T07:10:19.670Z,978.11
2016-12-01T07:11:19.626Z,978.16
2016-12-01T07:12:19.583Z,978.17
2016-12-01T07:13:19.540Z,978.17
2016-12-01T07:14:19.497Z,978.12
2016-12-01T07:15:19.452Z,978.15
2016-12-01T07:16:19.410Z,978.16
2016-12-01T07:17:19.366Z,978.2
2016-12-01T07:18:19.323Z,978.24
2016-12-01T07:19:19.281Z,978.23
2016-12-01T07:20:19.239Z,978.22
2016-12-01T07:21:19.197Z,978.24
2016-12-01T07:22:19.153Z,978.2
2016-12-01T07:23:19.107Z,978.15
2016-12-01T07:24:19.069Z,978.17
2016-12-01T07:25:19.022Z,978.2
2016-12-01T07:26:18.979Z,978.15
2016-12-01T07:27:18.939Z,978.22
2016-12-01T07:28:18.892Z,978.21
2016-12-01T07:29:18.853Z,978.22
2016-12-01T07:30:18.807Z,978.26
2016-12-01T07:31:18.765Z,978.23
2016-12-01T07:32:18.724Z,978.24
2016-12-01T07:33:18.679Z,978.24
2016-12-01T07:34:18.635Z,978.28
2016-12-01T07:35:18.593Z,978.25
2016-12-01T07:36:18.548Z,978.23
2016-12-01T07:37:18.506Z,978.24
2016-12-01T07:38:18.464Z,978.17
2016-12-01T07:39:18.421Z,978.19
2016-12-01T07:40:18.378Z,978.23
2016-12-01T07:41:18.335Z,978.21
2016-12-01T07:42:18.292Z,978.19
2016-12-01T07:43:18.252Z,978.16
2016-12-01T07:44:18.208Z,978.09
2016-12-01T07:45:18.165Z,978.13
2016-12-01T07:46:18.122Z,978.16
2016-12-01T07:47:18.079Z,978.12
2016-12-01T07:48:18.039Z,978.13
2016-12-01T07:49:17.995Z,978.09
2016-12-01T07:50:17.951Z,978.16
2016-12-01T07:51:17.910Z,978.13
2016-12-01T07:52:17.868Z,978.17
2016-12-01T07:53:17.824Z,978.16
2016-12-01T07:54:17.782Z,978.2
2016-12-01T07:55:17.744Z,978.18
2016-12-01T07:56:17.694Z,978.21
2016-12-01T07:57:17.654Z,978.22
2016-12-01T07:58:17.612Z,978.2
2016-12-01T07:59:17.569Z,978.17
2016-12-01T08:00:17.526Z,978.1
2016-12-01T08:01:17.483Z,978.07
2016-12-01T08:02:17.441Z,978.05
2016-12-01T08:03:17.399Z,978.02
2016-12-01T08:04:17.357Z,978.05
2016-12-01T08:05:17.315Z,978.04
2016-12-01T08:06:17.272Z,978.08
2016-12-01T08:07:17.232Z,978.08
2016-12-01T08:08:17.188Z,978.08
2016-12-01T08:09:17.146Z,978.11
2016-12-01T08:10:17.105Z,978.06
2016-12-01T08:11:17.061Z,978.05
2016-12-01T08:12:17.022Z,978.1
2016-12-01T08:13:16.975Z,978.04
2016-12-01T08:14:16.934Z,978.08
2016-12-01T08:15:16.892Z,978.12
2016-12-01T08:16:16.849Z,978.15
2016-12-01T08:17:16.808Z,978.15
2016-12-01T08:18:16.766Z,978.16
2016-12-01T08:19:16.724Z,978.2
2016-12-01T08:20:16.681Z,978.2
2016-12-01T08:21:16.640Z,978.22
2016-12-01T08:22:16.598Z,978.24
2016-12-01T08:23:16.554Z,978.25
2016-12-01T08:24:16.513Z,978.3
2016-12-01T08:25:16.475Z,978.3
2016-12-01T08:26:16.429Z,978.3
2016-12-01T08:27:16.386Z,978.33
2016-12-01T08:28:16.343Z,978.23
2016-12-01T08:29:16.303Z,978.19
2016-12-01T08:30:16.261Z,978.23
2016-12-01T08:31:16.218Z,978.25
2016-12-01T08:32:16.176Z,978.23
2016-12-01T08:33:16.136Z,978.16
2016-12-01T08:34:16.093Z,978.2
2016-12-01T08:35:16.050Z,978.19
2016-12-01T08:36:16.010Z,978.19
2016-12-01T08:37:15.967Z,978.12
2016-12-01T08:38:15.924Z,978.15
2016-12-01T08:39:15.883Z,978.12
2016-12-01T08:40:15.841Z,978.11
2016-12-01T08:41:15.800Z,978.11
2016-12-01T08:42:15.756Z,978.13
2016-12-01T08:43:15.716Z,978.11
2016-12-01T08:44:15.675Z,978.1
2016-12-01T08:45:15.633Z,978.08
2016-12-01T08:46:15.592Z,978.08
2016-12-01T08:47:15.548Z,978.08
2016-12-01T08:48:15.508Z,978.08
2016-12-01T08:49:15.466Z,978.08
2016-12-01T08:50:15.424Z,978.1
2016-12-01T08:51:15.384Z,978.11
2016-12-01T08:52:15.342Z,978.09
2016-12-01T08:53:15.300Z,978.08
2016-12-01T08:54:15.259Z,978.05
2016-12-01T08:55:15.220Z,978.04
2016-12-01T08:56:15.175Z,978
2016-12-01T08:57:15.134Z,978.04
2016-12-01T08:58:15.094Z,978.03
2016-12-01T08:59:15.052Z,978.06
2016-12-01T09:00:15.011Z,978.07
2016-12-01T09:01:14.972Z,978.07
2016-12-01T09:02:14.931Z,978.12
2016-12-01T09:03:14.887Z,978.15
2016-12-01T09:04:14.846Z,978.16
2016-12-01T09:05:14.804Z,978.18
2016-12-01T09:06:14.763Z,978.17
2016-12-01T09:07:14.721Z,978.17
2016-12-01T09:08:14.680Z,978.17
2016-12-01T09:09:14.641Z,978.17
2016-12-01T09:10:14.599Z,978.15
2016-12-01T09:11:14.556Z,978.15
2016-12-01T09:12:14.516Z,978.13
2016-12-01T09:13:14.480Z,978.14
2016-12-01T09:14:14.434Z,978.12
2016-12-01T09:15:14.392Z,978.09
2016-12-01T09:16:14.352Z,978.08
2016-12-01T09:17:14.311Z,978.05
2016-12-01T09:18:14.280Z,978.03
2016-12-01T09:19:14.227Z,978.06
2016-12-01T09:20:14.188Z,978.04
2016-12-01T09:21:14.147Z,978.05
2016-12-01T09:22:14.103Z,978.04
2016-12-01T09:23:14.075Z,978.07
2016-12-01T09:24:14.025Z,978.03
2016-12-01T09:25:13.982Z,978.05
2016-12-01T09:26:13.941Z,978.07
2016-12-01T09:27:13.900Z,978.02
2016-12-01T09:28:13.859Z,978.08
2016-12-01T09:29:13.818Z,978.14
2016-12-01T09:30:13.778Z,978.16
2016-12-01T09:31:13.738Z,978.14
2016-12-01T09:32:13.696Z,978.15
2016-12-01T09:33:13.654Z,978.14
2016-12-01T09:34:13.615Z,978.13
2016-12-01T09:35:13.576Z,978.12
2016-12-01T09:36:13.533Z,978.07
2016-12-01T09:37:13.493Z,978.06
2016-12-01T09:38:13.450Z,978
2016-12-01T09:39:13.411Z,977.98
2016-12-01T09:40:13.370Z,977.95
2016-12-01T09:41:13.330Z,977.91
2016-12-01T09:42:13.290Z,977.95
2016-12-01T09:43:13.251Z,977.96
2016-12-01T09:44:13.209Z,977.95
2016-12-01T09:45:13.170Z,977.93
2016-12-01T09:46:13.129Z,977.97
2016-12-01T09:47:13.088Z,977.94
2016-12-01T09:48:13.048Z,977.91
2016-12-01T09:49:13.008Z,977.91
2016-12-01T09:50:12.969Z,977.93
2016-12-01T09:51:12.928Z,977.95
2016-12-01T09:52:12.889Z,977.97
2016-12-01T09:53:12.849Z,977.97
2016-12-01T09:54:12.809Z,977.96
2016-12-01T09:55:12.769Z,977.89
2016-12-01T09:56:12.729Z,977.86
2016-12-01T09:57:12.691Z,977.84
2016-12-01T09:58:12.649Z,977.83
2016-12-01T09:59:12.611Z,977.79
2016-12-01T10:00:12.571Z,977.76
2016-12-01T10:01:12.534Z,977.76
2016-12-01T10:02:12.490Z,977.73
2016-12-01T10:03:12.452Z,977.8
2016-12-01T10:04:12.412Z,977.81
2016-12-01T10:05:12.374Z,977.81
2016-12-01T10:06:12.334Z,977.78
2016-12-01T10:07:12.295Z,977.75
2016-12-01T10:08:12.257Z,977.73
2016-12-01T10:09:12.219Z,977.72
2016-12-01T10:10:12.177Z,977.69
2016-12-01T10:11:12.139Z,977.69
2016-12-01T10:12:12.100Z,977.74
2016-12-01T10:13:12.059Z,977.69
2016-12-01T10:14:12.021Z,977.74
2016-12-01T10:15:11.984Z,977.73
2016-12-01T10:16:11.944Z,977.75
2016-12-01T10:17:11.906Z,977.7
2016-12-01T10:18:11.866Z,977.69
2016-12-01T10:19:11.828Z,977.69
2016-12-01T10:20:11.787Z,977.68
2016-12-01T10:21:11.749Z,977.68
2016-12-01T10:22:11.711Z,977.66
2016-12-01T10:23:11.671Z,977.61
2016-12-01T10:24:11.633Z,977.62
2016-12-01T10:25:11.594Z,977.59
2016-12-01T10:26:11.554Z,977.56
2016-12-01T10:27:11.517Z,977.53
2016-12-01T10:28:11.480Z,977.48
2016-12-01T10:29:11.440Z,977.51
2016-12-01T10:30:11.402Z,977.43
2016-12-01T10:31:11.362Z,977.39
2016-12-01T10:32:11.324Z,977.44
2016-12-01T10:33:11.286Z,977.42
2016-12-01T10:34:11.250Z,977.44
2016-12-01T10:35:11.209Z,977.48
2016-12-01T10:36:11.170Z,977.44
2016-12-01T10:37:11.132Z,977.43
2016-12-01T10:38:11.094Z,977.43
2016-12-01T10:39:11.056Z,977.41
2016-12-01T10:40:11.024Z,977.37
2016-12-01T10:41:10.979Z,977.43
2016-12-01T10:42:10.947Z,977.47
2016-12-01T10:43:10.902Z,977.48
2016-12-01T10:44:10.864Z,977.56
2016-12-01T10:45:10.825Z,977.55
2016-12-01T10:46:10.786Z,977.53
2016-12-01T10:47:10.749Z,977.46
2016-12-01T10:48:10.711Z,977.47
2016-12-01T10:49:10.674Z,977.47
2016-12-01T10:50:10.636Z,977.45
2016-12-01T10:51:10.602Z,977.43
2016-12-01T10:52:10.564Z,977.5
2016-12-01T10:53:10.528Z,977.56
2016-12-01T10:54:10.495Z,977.75
2016-12-01T10:55:10.456Z,977.88
2016-12-01T10:56:10.425Z,977.77
2016-12-01T10:57:10.387Z,977.59
2016-12-01T10:58:10.353Z,977.6
2016-12-01T10:59:10.318Z,977.54
2016-12-01T11:00:10.284Z,977.4
2016-12-01T11:01:10.254Z,977.35
2016-12-01T11:02:10.219Z,977.35
2016-12-01T11:03:10.183Z,977.32
2016-12-01T11:04:10.151Z,977.27
2016-12-01T11:05:10.116Z,977.26
2016-12-01T11:06:10.085Z,977.26
2016-12-01T11:07:10.051Z,977.27
2016-12-01T11:08:10.019Z,977.21
2016-12-01T11:09:10.015Z,977.19
2016-12-01T11:10:09.953Z,977.11
2016-12-01T11:11:09.917Z,977.09
2016-12-01T11:12:09.913Z,977.04
2016-12-01T11:13:09.856Z,976.98
2016-12-01T11:14:09.825Z,976.97
2016-12-01T11:15:09.789Z,976.98
2016-12-01T11:16:09.757Z,976.94
2016-12-01T11:17:09.723Z,976.94
2016-12-01T11:18:09.693Z,976.9
2016-12-01T11:19:09.659Z,976.91
2016-12-01T11:20:09.628Z,976.93
2016-12-01T11:21:09.597Z,976.87
2016-12-01T11:22:09.563Z,976.88
2016-12-01T11:23:09.530Z,976.85
2016-12-01T11:24:09.498Z,976.79
2016-12-01T11:25:09.466Z,976.75
2016-12-01T11:26:09.434Z,976.76
2016-12-01T11:27:09.400Z,976.64
2016-12-01T11:28:09.367Z,976.62
2016-12-01T11:29:09.335Z,976.62
2016-12-01T11:30:09.301Z,976.59
2016-12-01T11:31:09.269Z,976.63
2016-12-01T11:32:09.236Z,976.65
2016-12-01T11:33:09.204Z,976.59
2016-12-01T11:34:09.169Z,976.56
2016-12-01T11:35:09.135Z,976.54
2016-12-01T11:36:09.104Z,976.52
2016-12-01T11:37:09.068Z,976.5
2016-12-01T11:38:09.034Z,976.56
2016-12-01T11:39:09.001Z,976.52
2016-12-01T11:40:08.967Z,976.49
2016-12-01T11:41:08.936Z,976.51
2016-12-01T11:42:08.898Z,976.5
2016-12-01T11:43:08.865Z,976.47
2016-12-01T11:44:08.829Z,976.48
2016-12-01T11:45:08.796Z,976.42
2016-12-01T11:46:08.760Z,976.42
2016-12-01T11:47:08.727Z,976.31
2016-12-01T11:48:08.691Z,976.26
2016-12-01T11:49:08.655Z,976.2
2016-12-01T11:50:08.620Z,976.15
2016-12-01T11:51:08.584Z,976.15
2016-12-01T11:52:08.547Z,976.17
2016-12-01T11:53:08.512Z,976.16
2016-12-01T11:54:08.484Z,976.17
2016-12-01T11:55:08.439Z,976.13
2016-12-01T11:56:08.406Z,976.15
2016-12-01T11:57:08.368Z,976.13
2016-12-01T11:58:08.332Z,976.11
2016-12-01T11:59:08.296Z,976.13
2016-12-01T12:00:08.259Z,976.09
2016-12-01T12:01:08.224Z,976.1
2016-12-01T12:02:08.187Z,976.04
2016-12-01T12:03:08.149Z,976.02
2016-12-01T12:04:08.114Z,975.97
2016-12-01T12:05:08.076Z,975.96
2016-12-01T12:06:08.039Z,975.97
2016-12-01T12:07:08.004Z,975.94
2016-12-01T12:08:07.967Z,975.92
2016-12-01T12:09:07.928Z,975.92
2016-12-01T12:10:07.893Z,975.87
2016-12-01T12:11:07.854Z,975.89
2016-12-01T12:12:07.816Z,975.86
2016-12-01T12:13:07.779Z,975.85
2016-12-01T12:14:07.741Z,975.8
2016-12-01T12:15:07.707Z,975.82
2016-12-01T12:16:07.668Z,975.73
2016-12-01T12:17:07.629Z,975.76
2016-12-01T12:18:07.592Z,975.76
2016-12-01T12:19:07.554Z,975.77
2016-12-01T12:20:07.517Z,975.76
2016-12-01T12:21:07.480Z,975.71
2016-12-01T12:22:07.440Z,975.71
2016-12-01T12:23:07.404Z,975.69
2016-12-01T12:24:07.364Z,975.66
2016-12-01T12:25:07.326Z,975.66
2016-12-01T12:26:07.289Z,975.63
2016-12-01T12:27:07.250Z,975.61
2016-12-01T12:28:07.212Z,975.61
2016-12-01T12:29:07.175Z,975.56
2016-12-01T12:30:07.138Z,975.55